TimeEST,TemperatureF,Dew PointF,Humidity,Sea Level PressureIn,VisibilityMPH,Wind Direction,Wind SpeedMPH,Gust SpeedMPH,PrecipitationIn,Events,Conditions,WindDirDegrees,DateUTC
12:15 AM,26.6,21.2,80,29.91,10.0,NW,4.6,-,N/A,,Overcast,310,2013-12-15 05:15:00
12:35 AM,26.6,21.2,80,29.91,10.0,West,5.8,-,N/A,,Overcast,280,2013-12-15 05:35:00
12:55 AM,26.6,21.2,80,29.91,10.0,West,4.6,-,N/A,,Overcast,270,2013-12-15 05:55:00
1:15 AM,26.6,21.2,80,29.91,10.0,West,5.8,-,N/A,,Overcast,270,2013-12-15 06:15:00
1:35 AM,26.6,23.0,86,29.91,10.0,West,3.5,-,N/A,,Overcast,260,2013-12-15 06:35:00
1:55 AM,26.6,23.0,86,29.91,10.0,West,3.5,-,N/A,,Overcast,260,2013-12-15 06:55:00
2:15 AM,26.6,23.0,86,29.91,10.0,West,4.6,-,N/A,,Overcast,260,2013-12-15 07:15:00
2:35 AM,28.4,23.0,80,29.91,10.0,West,5.8,-,N/A,,Overcast,260,2013-12-15 07:35:00
2:55 AM,28.4,26.6,93,29.91,10.0,WNW,5.8,-,N/A,,Overcast,290,2013-12-15 07:55:00
3:15 AM,30.2,24.8,80,29.91,10.0,West,10.4,-,N/A,,Mostly Cloudy,270,2013-12-15 08:15:00
3:35 AM,28.4,24.8,86,29.92,10.0,West,12.7,18.4,N/A,,Mostly Cloudy,280,2013-12-15 08:35:00
3:55 AM,28.4,23.0,80,29.93,10.0,West,11.5,-,N/A,,Overcast,280,2013-12-15 08:55:00
4:15 AM,26.6,21.2,80,29.93,10.0,West,12.7,-,N/A,,Scattered Clouds,270,2013-12-15 09:15:00
4:35 AM,24.8,21.2,86,29.93,10.0,West,9.2,-,N/A,,Scattered Clouds,270,2013-12-15 09:35:00
4:55 AM,23.0,21.2,93,29.93,7.0,West,9.2,-,N/A,,Overcast,270,2013-12-15 09:55:00
5:15 AM,23.0,19.4,86,29.93,7.0,WSW,9.2,-,N/A,,Overcast,250,2013-12-15 10:15:00
5:35 AM,23.0,19.4,86,29.93,7.0,WSW,11.5,17.3,N/A,,Overcast,250,2013-12-15 10:35:00
5:55 AM,21.2,17.6,86,29.94,7.0,West,9.2,-,N/A,,Overcast,260,2013-12-15 10:55:00
6:15 AM,21.2,17.6,86,29.94,7.0,West,12.7,17.3,N/A,,Overcast,260,2013-12-15 11:15:00
6:35 AM,21.2,17.6,86,29.93,10.0,WSW,12.7,19.6,N/A,,Overcast,250,2013-12-15 11:35:00
6:55 AM,19.4,15.8,86,29.94,7.0,West,17.3,21.9,N/A,,Overcast,260,2013-12-15 11:55:00
7:15 AM,19.4,15.8,86,29.96,7.0,West,15.0,23.0,N/A,Snow,Light Snow,260,2013-12-15 12:15:00
7:35 AM,19.4,15.8,86,29.96,7.0,WSW,15.0,21.9,N/A,Snow,Light Snow,250,2013-12-15 12:35:00
7:55 AM,19.4,14.0,80,29.96,4.0,WSW,12.7,21.9,N/A,Snow,Light Snow,250,2013-12-15 12:55:00
8:15 AM,19.4,14.0,80,29.97,2.5,West,12.7,20.7,N/A,Snow,Light Snow,260,2013-12-15 13:15:00
8:35 AM,19.4,14.0,80,29.98,2.5,West,10.4,-,N/A,Snow,Light Snow,260,2013-12-15 13:35:00
8:55 AM,17.6,14.0,86,29.98,1.0,West,11.5,17.3,N/A,Snow,Light Snow,260,2013-12-15 13:55:00
9:15 AM,17.6,12.2,79,30.00,1.2,West,11.5,21.9,N/A,Snow,Light Snow,260,2013-12-15 14:15:00
9:35 AM,17.6,12.2,79,29.99,2.0,West,12.7,17.3,N/A,Snow,Light Snow,270,2013-12-15 14:35:00
9:55 AM,17.6,12.2,79,30.00,4.0,West,12.7,17.3,N/A,Snow,Light Snow,260,2013-12-15 14:55:00
10:15 AM,17.6,10.4,73,30.01,4.0,West,12.7,20.7,N/A,Snow,Light Snow,260,2013-12-15 15:15:00
10:35 AM,19.4,10.4,68,30.01,5.0,West,12.7,25.3,N/A,Snow,Light Snow,260,2013-12-15 15:35:00
10:55 AM,17.6,12.2,79,30.00,3.0,WSW,12.7,19.6,N/A,Snow,Light Snow,250,2013-12-15 15:55:00
11:15 AM,17.6,10.4,73,30.00,2.0,West,12.7,18.4,N/A,Snow,Light Snow,260,2013-12-15 16:15:00
11:35 AM,17.6,10.4,73,30.01,7.0,WSW,15.0,20.7,N/A,,Mostly Cloudy,250,2013-12-15 16:35:00
11:55 AM,17.6,10.4,73,30.02,2.5,WSW,13.8,20.7,N/A,Snow,Light Snow,250,2013-12-15 16:55:00
12:35 PM,17.6,10.4,73,30.01,4.0,WSW,15.0,21.9,N/A,Snow,Light Snow,250,2013-12-15 17:35:00
12:55 PM,17.6,10.4,73,30.00,5.0,WSW,15.0,19.6,N/A,Snow,Light Snow,240,2013-12-15 17:55:00
1:15 PM,17.6,10.4,73,30.00,4.0,WSW,13.8,21.9,N/A,Snow,Light Snow,240,2013-12-15 18:15:00
1:35 PM,17.6,10.4,73,30.00,5.0,WSW,13.8,23.0,N/A,Snow,Light Snow,250,2013-12-15 18:35:00
1:55 PM,19.4,10.4,68,30.00,7.0,West,13.8,19.6,N/A,Snow,Light Snow,260,2013-12-15 18:55:00
2:15 PM,19.4,12.2,74,30.00,7.0,WSW,12.7,17.3,N/A,,Scattered Clouds,250,2013-12-15 19:15:00
2:35 PM,19.4,12.2,74,30.00,7.0,West,12.7,21.9,N/A,,Mostly Cloudy,260,2013-12-15 19:35:00
2:55 PM,19.4,12.2,74,30.01,10.0,West,13.8,18.4,N/A,,Mostly Cloudy,260,2013-12-15 19:55:00
3:15 PM,19.4,12.2,74,30.01,10.0,WSW,15.0,-,N/A,,Scattered Clouds,250,2013-12-15 20:15:00
3:35 PM,19.4,12.2,74,30.01,10.0,West,13.8,21.9,N/A,,Scattered Clouds,260,2013-12-15 20:35:00
3:55 PM,19.4,12.2,74,30.01,10.0,WSW,12.7,19.6,N/A,,Clear,250,2013-12-15 20:55:00
4:15 PM,19.4,12.2,74,30.01,7.0,WSW,15.0,20.7,N/A,,Scattered Clouds,250,2013-12-15 21:15:00
4:35 PM,19.4,10.4,68,30.02,10.0,West,11.5,20.7,N/A,,Mostly Cloudy,260,2013-12-15 21:35:00
4:55 PM,17.6,12.2,79,30.04,10.0,West,11.5,18.4,N/A,,Overcast,270,2013-12-15 21:55:00
5:15 PM,17.6,12.2,79,30.04,10.0,WSW,12.7,17.3,N/A,,Overcast,250,2013-12-15 22:15:00
5:35 PM,17.6,10.4,73,30.04,10.0,West,15.0,21.9,N/A,,Mostly Cloudy,260,2013-12-15 22:35:00
5:55 PM,17.6,10.4,73,30.05,10.0,West,11.5,16.1,N/A,,Overcast,260,2013-12-15 22:55:00
6:15 PM,17.6,10.4,73,30.05,10.0,WSW,11.5,-,N/A,,Overcast,250,2013-12-15 23:15:00
6:35 PM,17.6,10.4,73,30.04,10.0,WSW,10.4,17.3,N/A,,Overcast,250,2013-12-15 23:35:00
6:55 PM,17.6,10.4,73,30.05,10.0,West,11.5,17.3,N/A,,Overcast,260,2013-12-15 23:55:00
7:15 PM,17.6,10.4,73,30.06,10.0,West,9.2,-,N/A,,Overcast,260,2013-12-16 00:15:00
7:35 PM,17.6,10.4,73,30.06,10.0,WSW,8.1,-,N/A,,Mostly Cloudy,250,2013-12-16 00:35:00
7:55 PM,17.6,10.4,73,30.07,10.0,WSW,10.4,-,N/A,,Scattered Clouds,250,2013-12-16 00:55:00
8:15 PM,15.8,10.4,79,30.08,10.0,West,8.1,-,N/A,,Clear,270,2013-12-16 01:15:00
8:35 PM,15.8,8.6,73,30.09,10.0,West,5.8,-,N/A,,Clear,270,2013-12-16 01:35:00
8:55 PM,15.8,8.6,73,30.09,10.0,West,5.8,-,N/A,,Clear,270,2013-12-16 01:55:00
9:15 PM,15.8,8.6,73,30.09,10.0,West,5.8,-,N/A,,Clear,270,2013-12-16 02:15:00
9:35 PM,15.8,8.6,73,30.09,10.0,West,6.9,-,N/A,,Clear,270,2013-12-16 02:35:00
9:55 PM,14.0,8.6,79,30.09,10.0,West,4.6,-,N/A,,Clear,280,2013-12-16 02:55:00
10:15 PM,14.0,8.6,79,30.10,10.0,West,3.5,-,N/A,,Clear,270,2013-12-16 03:15:00
10:35 PM,14.0,8.6,79,30.10,10.0,Calm,Calm,-,N/A,,Clear,0,2013-12-16 03:35:00
10:55 PM,12.2,8.6,85,30.10,10.0,Calm,Calm,-,N/A,,Clear,0,2013-12-16 03:55:00
11:15 PM,14.0,8.6,79,30.10,10.0,West,3.5,-,N/A,,Clear,280,2013-12-16 04:15:00
11:35 PM,14.0,8.6,79,30.10,10.0,Calm,Calm,-,N/A,,Clear,0,2013-12-16 04:35:00
11:55 PM,14.0,8.6,79,30.10,10.0,SW,3.5,-,N/A,,Clear,220,2013-12-16 04:55:00